Time;durP1;ratioP1;P1;durP2;ratioP2;P2;SDS_P1;SDS_P2;PMS_P1;PMS_P2;Temp;Humidity;BMP_temperature;BMP_pressure;BME280_temperature;BME280_humidity;BME280_pressure;Samples;Min_cycle;Max_cycle;Signal;HPM_P1;HPM_P2
2023/12/07 00:00:06;;;;;;;;;;;19.00;59.60;;;;;;5034537;28;1486;-68
2023/12/07 00:02:32;;;;;;;;;;;19.00;59.60;;;;;;5039695;28;1534;-68
2023/12/07 00:04:57;;;;;;;;;;;19.00;59.60;;;;;;5037874;28;1567;-70
2023/12/07 00:07:23;;;;;;;;;;;19.00;59.60;;;;;;5036891;28;1910;-67
2023/12/07 00:09:48;;;;;;;;;;;19.00;59.60;;;;;;5037993;28;1654;-67
2023/12/07 00:12:14;;;;;;;;;;;18.90;59.50;;;;;;5039922;28;1504;-67
2023/12/07 00:14:39;;;;;;;;;;;19.00;59.60;;;;;;5037165;28;1393;-67
2023/12/07 00:17:05;;;;;;;;;;;19.00;59.60;;;;;;5044419;28;1272;-67
2023/12/07 00:19:30;;;;;;;;;;;19.00;59.60;;;;;;5038966;28;1480;-67
2023/12/07 00:21:55;;;;;;;;;;;19.00;59.60;;;;;;5034604;28;1228;-67
2023/12/07 00:24:21;;;;;;;;;;;19.00;59.60;;;;;;5037307;28;1361;-68
2023/12/07 00:26:46;;;;;;;;;;;19.00;59.60;;;;;;5032538;28;1898;-67
2023/12/07 00:29:12;;;;;;;;;;;19.00;59.60;;;;;;5035549;28;1383;-67
2023/12/07 00:31:37;;;;;;;;;;;19.00;59.60;;;;;;5036822;28;1132;-67
2023/12/07 00:34:03;;;;;;;;;;;19.00;59.60;;;;;;5044208;28;1173;-68
2023/12/07 00:36:28;;;;;;;;;;;19.00;59.60;;;;;;5037182;28;1387;-67
2023/12/07 00:38:54;;;;;;;;;;;19.00;59.60;;;;;;5037527;28;1487;-68
2023/12/07 00:41:19;;;;;;;;;;;19.00;59.60;;;;;;5037802;28;1422;-68
2023/12/07 00:43:45;;;;;;;;;;;19.00;59.60;;;;;;5035717;28;1416;-68
2023/12/07 00:46:10;;;;;;;;;;;19.00;59.60;;;;;;5034552;28;1427;-68
2023/12/07 00:48:36;;;;;;;;;;;19.00;59.60;;;;;;5035185;28;1973;-68
2023/12/07 00:51:02;;;;;;;;;;;19.00;59.60;;;;;;5039471;28;1276;-68
2023/12/07 00:53:27;;;;;;;;;;;19.00;59.60;;;;;;5034700;28;1549;-69
2023/12/07 00:55:53;;;;;;;;;;;19.00;59.60;;;;;;5037300;28;1418;-70
2023/12/07 00:58:18;;;;;;;;;;;19.00;59.60;;;;;;5068584;28;1443;-70
2023/12/07 01:00:44;;;;;;;;;;;19.00;59.60;;;;;;5034734;28;1411;-70
2023/12/07 01:03:10;;;;;;;;;;;19.00;59.60;;;;;;5036494;28;1452;-70
2023/12/07 01:05:35;;;;;;;;;;;19.00;59.60;;;;;;5036226;28;1375;-69
2023/12/07 01:08:01;;;;;;;;;;;19.00;59.60;;;;;;5037132;28;1898;-70
2023/12/07 01:10:26;;;;;;;;;;;19.00;59.60;;;;;;5058369;28;1566;-70
2023/12/07 01:12:52;;;;;;;;;;;19.00;59.60;;;;;;5037273;28;1320;-70
2023/12/07 01:15:17;;;;;;;;;;;19.00;59.60;;;;;;5067124;28;1378;-69
2023/12/07 01:17:43;;;;;;;;;;;18.90;59.60;;;;;;5035670;28;1368;-70
2023/12/07 01:20:12;;;;;;;;;;;19.00;59.60;;;;;;5036319;28;1282;-69
2023/12/07 01:22:45;;;;;;;;;;;19.00;59.60;;;;;;5033924;28;1472;-70
2023/12/07 01:25:11;;;;;;;;;;;19.00;59.70;;;;;;5035279;28;1250;-70
2023/12/07 01:27:36;;;;;;;;;;;19.00;59.70;;;;;;5032341;28;1894;-70
2023/12/07 01:30:03;;;;;;;;;;;19.00;59.70;;;;;;5034468;28;1514;-69
2023/12/07 01:32:29;;;;;;;;;;;19.00;59.70;;;;;;5035425;28;1521;-70
2023/12/07 01:34:54;;;;;;;;;;;19.00;59.70;;;;;;5037501;28;1304;-70
2023/12/07 01:37:20;;;;;;;;;;;19.00;59.70;;;;;;5035142;28;1478;-70
2023/12/07 01:39:45;;;;;;;;;;;19.00;59.70;;;;;;5035316;28;1502;-70
2023/12/07 01:42:12;;;;;;;;;;;19.00;59.70;;;;;;5039334;28;1288;-70
2023/12/07 01:44:38;;;;;;;;;;;19.00;59.70;;;;;;5037192;28;1457;-70
2023/12/07 01:47:03;;;;;;;;;;;19.00;59.70;;;;;;5037101;28;1898;-70
2023/12/07 01:49:29;;;;;;;;;;;19.00;59.70;;;;;;5037119;28;1401;-70
2023/12/07 01:51:54;;;;;;;;;;;19.00;59.70;;;;;;5035174;28;1425;-69
2023/12/07 01:54:20;;;;;;;;;;;19.00;59.70;;;;;;5035296;28;1783;-70
2023/12/07 01:56:45;;;;;;;;;;;18.90;59.60;;;;;;5036173;28;1532;-70
2023/12/07 01:59:11;;;;;;;;;;;18.90;59.60;;;;;;5036236;28;1276;-70
2023/12/07 02:01:36;;;;;;;;;;;18.90;59.60;;;;;;5039350;28;1506;-70
2023/12/07 02:04:02;;;;;;;;;;;18.90;59.60;;;;;;5039535;28;1069;-70
2023/12/07 02:06:28;;;;;;;;;;;18.90;59.70;;;;;;5039715;28;1354;-71
2023/12/07 02:08:53;;;;;;;;;;;18.90;59.70;;;;;;5041076;28;1910;-71
2023/12/07 02:11:19;;;;;;;;;;;18.90;59.70;;;;;;5036641;28;1612;-71
2023/12/07 02:13:44;;;;;;;;;;;18.90;59.70;;;;;;5040543;28;1345;-71
2023/12/07 02:16:15;;;;;;;;;;;18.90;59.70;;;;;;5039915;28;1333;-71
2023/12/07 02:18:42;;;;;;;;;;;18.90;59.70;;;;;;5046794;28;1505;-71
2023/12/07 02:21:15;;;;;;;;;;;18.90;59.70;;;;;;5041270;28;1453;-71
2023/12/07 02:23:41;;;;;;;;;;;18.90;59.70;;;;;;5038935;28;1430;-71
2023/12/07 02:26:06;;;;;;;;;;;18.90;59.80;;;;;;5037770;28;1385;-70
2023/12/07 02:28:32;;;;;;;;;;;18.90;59.70;;;;;;5038477;28;1981;-70
2023/12/07 02:30:57;;;;;;;;;;;18.90;59.80;;;;;;5038527;28;1300;-72
2023/12/07 02:33:23;;;;;;;;;;;18.90;59.70;;;;;;5038642;28;1435;-72
2023/12/07 02:35:48;;;;;;;;;;;18.90;59.80;;;;;;5036074;28;1247;-72
2023/12/07 02:38:14;;;;;;;;;;;18.90;59.80;;;;;;5039973;28;1325;-72
2023/12/07 02:40:40;;;;;;;;;;;18.90;59.70;;;;;;5037636;28;1429;-71
2023/12/07 02:43:06;;;;;;;;;;;18.90;59.70;;;;;;5041595;28;1334;-72
2023/12/07 02:45:31;;;;;;;;;;;18.90;59.80;;;;;;5026989;28;1371;-71
2023/12/07 02:47:57;;;;;;;;;;;18.90;59.80;;;;;;5072396;28;1918;-71
2023/12/07 02:50:22;;;;;;;;;;;18.90;59.80;;;;;;5037947;28;1394;-70
2023/12/07 02:52:48;;;;;;;;;;;18.90;59.80;;;;;;5039869;28;1434;-70
2023/12/07 02:55:13;;;;;;;;;;;18.90;59.80;;;;;;5039414;28;1298;-70
2023/12/07 02:57:38;;;;;;;;;;;18.90;59.80;;;;;;5037917;28;1707;-70
2023/12/07 03:00:07;;;;;;;;;;;18.90;59.80;;;;;;5038608;28;1482;-71
2023/12/07 03:02:39;;;;;;;;;;;18.90;59.80;;;;;;5040457;28;1465;-70
2023/12/07 03:05:04;;;;;;;;;;;18.90;59.90;;;;;;5039824;28;1301;-70
2023/12/07 03:07:30;;;;;;;;;;;18.90;59.90;;;;;;5037376;28;1972;-70
2023/12/07 03:09:55;;;;;;;;;;;18.90;59.90;;;;;;5041236;28;1382;-70
2023/12/07 03:12:21;;;;;;;;;;;18.90;59.90;;;;;;5039704;28;1401;-70
2023/12/07 03:14:46;;;;;;;;;;;18.90;59.90;;;;;;5071349;28;1498;-69
2023/12/07 03:17:12;;;;;;;;;;;18.90;59.90;;;;;;5036193;28;1472;-70
2023/12/07 03:19:38;;;;;;;;;;;18.90;60.00;;;;;;5036627;28;1357;-71
2023/12/07 03:22:04;;;;;;;;;;;18.80;59.90;;;;;;5037067;28;1496;-70
2023/12/07 03:24:29;;;;;;;;;;;18.90;60.00;;;;;;5037775;28;1270;-71
2023/12/07 03:26:55;;;;;;;;;;;18.90;60.00;;;;;;5039708;28;1910;-71
2023/12/07 03:29:20;;;;;;;;;;;18.90;60.00;;;;;;5038151;28;1525;-71
2023/12/07 03:31:46;;;;;;;;;;;18.90;59.90;;;;;;5042301;28;1456;-71
2023/12/07 03:34:15;;;;;;;;;;;18.80;59.90;;;;;;5038910;28;1415;-71
2023/12/07 03:36:42;;;;;;;;;;;18.90;59.90;;;;;;5039212;28;1386;-71
2023/12/07 03:39:07;;;;;;;;;;;18.90;60.00;;;;;;5038613;28;1393;-70
2023/12/07 03:41:33;;;;;;;;;;;18.90;59.90;;;;;;5038176;28;1553;-70
2023/12/07 03:43:58;;;;;;;;;;;18.90;60.70;;;;;;5038275;28;1461;-70
2023/12/07 03:46:24;;;;;;;;;;;18.90;59.90;;;;;;5039916;28;1703;-70
2023/12/07 03:48:49;;;;;;;;;;;18.90;59.90;;;;;;5036501;28;1898;-69
2023/12/07 03:51:16;;;;;;;;;;;18.90;59.90;;;;;;5038033;28;1457;-69
2023/12/07 03:53:42;;;;;;;;;;;18.90;60.00;;;;;;5037730;28;1415;-69
2023/12/07 03:56:08;;;;;;;;;;;18.90;59.90;;;;;;5041544;28;1514;-69
2023/12/07 03:58:33;;;;;;;;;;;18.90;59.90;;;;;;5036528;28;1386;-70
2023/12/07 04:00:59;;;;;;;;;;;18.90;59.90;;;;;;5037224;28;1400;-69
2023/12/07 04:03:24;;;;;;;;;;;18.90;59.90;;;;;;5037025;28;1457;-70
2023/12/07 04:05:49;;;;;;;;;;;18.90;59.90;;;;;;5037740;28;1445;-69
2023/12/07 04:08:15;;;;;;;;;;;18.90;59.90;;;;;;5035506;28;1914;-69
2023/12/07 04:10:40;;;;;;;;;;;18.90;59.90;;;;;;5038647;28;1365;-69
2023/12/07 04:13:06;;;;;;;;;;;18.90;59.90;;;;;;5038172;28;1349;-69
2023/12/07 04:15:31;;;;;;;;;;;18.90;59.90;;;;;;5039369;28;1380;-69
2023/12/07 04:17:57;;;;;;;;;;;18.90;59.90;;;;;;5038239;28;1296;-68
2023/12/07 04:20:22;;;;;;;;;;;18.90;60.00;;;;;;5038798;28;1299;-70
2023/12/07 04:22:48;;;;;;;;;;;18.90;59.90;;;;;;5070920;28;1257;-69
2023/12/07 04:25:14;;;;;;;;;;;18.90;60.00;;;;;;5038741;28;1203;-68
2023/12/07 04:27:39;;;;;;;;;;;18.90;59.90;;;;;;5040011;28;1898;-70
2023/12/07 04:30:06;;;;;;;;;;;18.90;59.90;;;;;;5038123;28;1355;-69
2023/12/07 04:32:31;;;;;;;;;;;18.90;60.00;;;;;;5041094;28;1402;-69
2023/12/07 04:34:57;;;;;;;;;;;18.90;59.90;;;;;;5035754;28;1502;-71
2023/12/07 04:37:23;;;;;;;;;;;18.90;59.90;;;;;;5037315;28;1604;-70
2023/12/07 04:39:49;;;;;;;;;;;18.90;59.90;;;;;;5046802;28;1397;-69
2023/12/07 04:42:14;;;;;;;;;;;18.90;59.90;;;;;;5062195;28;1373;-69
2023/12/07 04:44:40;;;;;;;;;;;18.90;59.90;;;;;;5069668;28;1603;-70
2023/12/07 04:47:05;;;;;;;;;;;18.90;59.90;;;;;;5039029;28;1911;-71
2023/12/07 04:49:31;;;;;;;;;;;18.80;59.90;;;;;;5037667;28;904;-69
2023/12/07 04:51:57;;;;;;;;;;;18.90;60.00;;;;;;5039708;28;1200;-71
2023/12/07 04:54:22;;;;;;;;;;;18.90;59.90;;;;;;5039844;28;1156;-70
2023/12/07 04:56:48;;;;;;;;;;;18.90;60.00;;;;;;5038988;28;1495;-70
2023/12/07 04:59:13;;;;;;;;;;;18.90;59.90;;;;;;5039558;28;1323;-70
2023/12/07 05:01:41;;;;;;;;;;;18.90;59.90;;;;;;5038417;28;1509;-69
2023/12/07 05:04:07;;;;;;;;;;;18.80;59.90;;;;;;5035285;28;1268;-70
2023/12/07 05:06:33;;;;;;;;;;;18.80;59.90;;;;;;5037556;28;1444;-69
2023/12/07 05:08:59;;;;;;;;;;;18.80;60.00;;;;;;5037964;28;1902;-70
2023/12/07 05:11:24;;;;;;;;;;;18.90;60.10;;;;;;5029831;28;1183;-68
2023/12/07 05:13:50;;;;;;;;;;;18.90;60.00;;;;;;5038293;28;930;-69
2023/12/07 05:16:15;;;;;;;;;;;19.00;60.00;;;;;;5038751;28;1411;-69
2023/12/07 05:18:41;;;;;;;;;;;19.00;59.90;;;;;;5035015;28;1424;-70
2023/12/07 05:21:07;;;;;;;;;;;19.10;59.80;;;;;;5034887;28;1113;-69
2023/12/07 05:23:32;;;;;;;;;;;19.30;59.60;;;;;;5039049;28;1276;-70
2023/12/07 05:25:57;;;;;;;;;;;19.50;59.40;;;;;;5036479;28;1483;-70
2023/12/07 05:28:23;;;;;;;;;;;19.60;59.00;;;;;;5034568;28;1973;-70
2023/12/07 05:30:48;;;;;;;;;;;19.70;58.70;;;;;;5039616;28;1269;-70
2023/12/07 05:33:14;;;;;;;;;;;19.90;58.50;;;;;;5034369;28;1926;-69
2023/12/07 05:35:40;;;;;;;;;;;20.10;58.20;;;;;;5038698;28;1337;-69
2023/12/07 05:38:05;;;;;;;;;;;20.20;57.90;;;;;;5039223;28;1468;-69
2023/12/07 05:40:31;;;;;;;;;;;20.40;57.60;;;;;;5041588;28;1786;-70
2023/12/07 05:42:56;;;;;;;;;;;20.50;57.40;;;;;;5029502;28;1566;-69
2023/12/07 05:45:22;;;;;;;;;;;20.60;57.10;;;;;;5048402;28;1615;-68
2023/12/07 05:47:47;;;;;;;;;;;20.70;56.90;;;;;;5039308;28;1914;-68
2023/12/07 05:50:13;;;;;;;;;;;20.80;56.60;;;;;;5039929;28;1258;-68
2023/12/07 05:52:39;;;;;;;;;;;20.90;56.40;;;;;;5041896;28;1187;-68
2023/12/07 05:55:04;;;;;;;;;;;20.90;56.20;;;;;;5041341;28;1355;-68
2023/12/07 05:57:31;;;;;;;;;;;21.00;56.00;;;;;;5039470;28;1675;-70
2023/12/07 05:59:56;;;;;;;;;;;21.00;55.90;;;;;;5038130;28;1369;-69
2023/12/07 06:02:22;;;;;;;;;;;21.10;55.80;;;;;;5039591;28;1379;-69
2023/12/07 06:04:47;;;;;;;;;;;21.10;55.80;;;;;;5037179;28;1446;-68
2023/12/07 06:07:12;;;;;;;;;;;21.10;55.70;;;;;;5038258;28;1976;-69
2023/12/07 06:09:38;;;;;;;;;;;21.20;55.70;;;;;;5040869;28;1341;-70
2023/12/07 06:12:04;;;;;;;;;;;21.20;55.70;;;;;;5043115;28;1115;-71
2023/12/07 06:14:29;;;;;;;;;;;21.10;55.70;;;;;;5038089;28;1294;-71
2023/12/07 06:16:55;;;;;;;;;;;21.20;55.70;;;;;;5047668;28;1412;-71
2023/12/07 06:19:21;;;;;;;;;;;21.20;55.70;;;;;;5041319;28;1336;-71
2023/12/07 06:21:46;;;;;;;;;;;21.10;55.70;;;;;;5038283;28;1395;-70
2023/12/07 06:24:14;;;;;;;;;;;21.20;55.70;;;;;;5037556;28;1438;-71
2023/12/07 06:26:39;;;;;;;;;;;21.10;55.60;;;;;;5043120;28;1361;-71
2023/12/07 06:29:05;;;;;;;;;;;21.10;55.60;;;;;;5052933;28;2036;-71
2023/12/07 06:31:30;;;;;;;;;;;21.10;55.70;;;;;;5040215;28;1486;-70
2023/12/07 06:33:56;;;;;;;;;;;21.10;55.70;;;;;;5046691;28;1226;-70
2023/12/07 06:36:22;;;;;;;;;;;21.10;55.70;;;;;;5042799;28;1327;-71
2023/12/07 06:38:47;;;;;;;;;;;21.10;55.80;;;;;;5038224;28;1460;-70
2023/12/07 06:41:13;;;;;;;;;;;21.00;55.80;;;;;;5035346;28;1396;-70
2023/12/07 06:43:39;;;;;;;;;;;21.00;55.80;;;;;;5035608;28;1247;-71
2023/12/07 06:46:04;;;;;;;;;;;21.00;55.90;;;;;;5036253;28;1226;-70
2023/12/07 06:48:30;;;;;;;;;;;21.00;55.90;;;;;;5037291;28;1902;-70
2023/12/07 06:50:55;;;;;;;;;;;21.00;56.00;;;;;;5037180;28;1393;-71
2023/12/07 06:53:21;;;;;;;;;;;20.90;56.00;;;;;;5036686;28;1394;-71
2023/12/07 06:55:46;;;;;;;;;;;20.90;56.00;;;;;;5037774;28;1253;-71
2023/12/07 06:58:12;;;;;;;;;;;20.90;56.10;;;;;;5037793;28;1423;-70
2023/12/07 07:00:37;;;;;;;;;;;20.90;56.10;;;;;;5039492;28;1340;-70
2023/12/07 07:03:03;;;;;;;;;;;20.80;56.20;;;;;;5037803;28;1489;-70
2023/12/07 07:05:28;;;;;;;;;;;20.80;56.30;;;;;;5042073;28;1396;-70
2023/12/07 07:07:55;;;;;;;;;;;20.80;56.30;;;;;;5041107;28;1902;-70
2023/12/07 07:10:20;;;;;;;;;;;20.80;56.40;;;;;;5036520;28;1351;-69
2023/12/07 07:12:46;;;;;;;;;;;20.70;56.40;;;;;;5039577;28;1215;-69
2023/12/07 07:15:11;;;;;;;;;;;20.70;56.50;;;;;;5039657;28;1616;-70
2023/12/07 07:17:37;;;;;;;;;;;20.70;56.50;;;;;;5037070;28;1351;-70
2023/12/07 07:20:02;;;;;;;;;;;20.70;56.60;;;;;;5040013;28;1419;-69
2023/12/07 07:22:28;;;;;;;;;;;20.60;56.60;;;;;;5039522;28;1694;-68
2023/12/07 07:24:53;;;;;;;;;;;20.60;56.70;;;;;;5039452;28;1394;-69
2023/12/07 07:27:19;;;;;;;;;;;20.60;56.80;;;;;;5039431;28;1894;-69
2023/12/07 07:29:46;;;;;;;;;;;20.60;56.90;;;;;;5041792;28;1072;-69
2023/12/07 07:32:11;;;;;;;;;;;20.50;56.90;;;;;;5037444;28;1187;-69
2023/12/07 07:34:36;;;;;;;;;;;20.50;56.90;;;;;;5039368;28;1477;-69
2023/12/07 07:37:02;;;;;;;;;;;20.50;57.00;;;;;;5039338;28;1270;-68
2023/12/07 07:39:28;;;;;;;;;;;20.50;57.00;;;;;;5036594;28;1955;-68
2023/12/07 07:41:53;;;;;;;;;;;20.50;57.10;;;;;;5040035;28;1537;-68
2023/12/07 07:44:19;;;;;;;;;;;20.40;57.10;;;;;;5037174;28;1344;-68
2023/12/07 07:46:44;;;;;;;;;;;20.40;57.20;;;;;;5037179;28;1697;-69
2023/12/07 07:49:10;;;;;;;;;;;20.40;57.20;;;;;;5037848;28;2000;-68
2023/12/07 07:51:35;;;;;;;;;;;20.40;57.30;;;;;;5039427;28;1479;-68
2023/12/07 07:54:01;;;;;;;;;;;20.30;57.20;;;;;;5040310;28;1666;-68
2023/12/07 07:56:26;;;;;;;;;;;20.30;57.30;;;;;;5038792;28;1136;-69
2023/12/07 07:58:54;;;;;;;;;;;20.30;57.40;;;;;;5037084;28;1359;-68
2023/12/07 08:01:19;;;;;;;;;;;20.30;57.40;;;;;;5041308;28;1383;-69
2023/12/07 08:03:45;;;;;;;;;;;20.30;57.50;;;;;;5039681;28;1391;-69
2023/12/07 08:06:10;;;;;;;;;;;20.30;57.50;;;;;;5037179;28;1193;-69
2023/12/07 08:08:36;;;;;;;;;;;20.30;57.50;;;;;;5040813;28;2005;-69
2023/12/07 08:11:01;;;;;;;;;;;20.20;57.50;;;;;;5038383;28;1478;-69
2023/12/07 08:13:27;;;;;;;;;;;20.20;57.50;;;;;;5037111;28;1459;-69
2023/12/07 08:15:53;;;;;;;;;;;20.20;57.60;;;;;;5036495;28;1132;-69
2023/12/07 08:18:18;;;;;;;;;;;20.20;57.70;;;;;;5037577;28;1391;-68
2023/12/07 08:20:44;;;;;;;;;;;20.20;57.70;;;;;;5036102;28;1506;-68
2023/12/07 08:23:10;;;;;;;;;;;20.20;57.70;;;;;;5035898;28;1309;-68
2023/12/07 08:25:36;;;;;;;;;;;20.10;57.70;;;;;;5040366;28;1435;-68
2023/12/07 08:28:01;;;;;;;;;;;20.10;57.70;;;;;;5033093;28;1966;-68
2023/12/07 08:30:28;;;;;;;;;;;20.10;57.70;;;;;;5038603;28;1689;-68
2023/12/07 08:32:53;;;;;;;;;;;20.10;57.70;;;;;;5038544;28;1456;-68
2023/12/07 08:35:18;;;;;;;;;;;20.10;57.80;;;;;;5037915;28;1366;-68
2023/12/07 08:37:44;;;;;;;;;;;20.10;57.80;;;;;;5037244;28;1444;-68
2023/12/07 08:40:11;;;;;;;;;;;20.10;57.80;;;;;;5038935;28;1453;-68
2023/12/07 08:42:36;;;;;;;;;;;20.10;57.80;;;;;;5037019;28;1547;-68
2023/12/07 08:45:02;;;;;;;;;;;20.10;57.90;;;;;;5034619;28;1452;-68
2023/12/07 08:47:30;;;;;;;;;;;20.00;57.80;;;;;;5038790;28;1905;-68
2023/12/07 08:49:55;;;;;;;;;;;20.00;57.90;;;;;;5038159;28;1351;-68
2023/12/07 08:52:20;;;;;;;;;;;20.00;57.80;;;;;;5046704;28;1413;-68
2023/12/07 08:54:46;;;;;;;;;;;20.00;57.90;;;;;;5037850;28;1458;-68
2023/12/07 08:57:12;;;;;;;;;;;20.00;57.90;;;;;;5037766;28;1361;-68
2023/12/07 08:59:37;;;;;;;;;;;20.00;57.90;;;;;;5035857;28;1462;-69
2023/12/07 09:02:03;;;;;;;;;;;20.00;57.90;;;;;;5039804;28;1512;-69
2023/12/07 09:04:28;;;;;;;;;;;20.00;57.90;;;;;;5036177;28;1022;-69
2023/12/07 09:06:54;;;;;;;;;;;20.00;57.90;;;;;;5037928;28;2032;-69
2023/12/07 09:09:20;;;;;;;;;;;20.00;57.90;;;;;;5034564;28;1378;-69
2023/12/07 09:11:45;;;;;;;;;;;20.00;57.90;;;;;;5038761;28;1261;-69
2023/12/07 09:14:11;;;;;;;;;;;20.00;57.90;;;;;;5034574;28;1347;-69
2023/12/07 09:16:44;;;;;;;;;;;20.00;57.90;;;;;;5036615;28;1339;-69
2023/12/07 09:19:10;;;;;;;;;;;20.00;58.00;;;;;;5035709;28;1329;-69
2023/12/07 09:21:35;;;;;;;;;;;19.90;57.90;;;;;;5038777;28;1485;-69
2023/12/07 09:24:01;;;;;;;;;;;20.00;58.10;;;;;;5044860;28;1416;-70
2023/12/07 09:26:27;;;;;;;;;;;20.00;58.20;;;;;;5037076;28;1320;-70
2023/12/07 09:28:52;;;;;;;;;;;19.90;58.10;;;;;;5036797;28;1930;-69
2023/12/07 09:31:18;;;;;;;;;;;19.90;58.10;;;;;;5037181;28;1437;-69
2023/12/07 09:33:43;;;;;;;;;;;19.90;58.10;;;;;;5037851;28;1408;-69
2023/12/07 09:36:11;;;;;;;;;;;19.90;58.10;;;;;;5035654;28;1417;-69
2023/12/07 09:38:37;;;;;;;;;;;19.90;58.10;;;;;;5038321;28;1929;-69
2023/12/07 09:41:02;;;;;;;;;;;19.90;58.10;;;;;;5036026;28;1451;-69
2023/12/07 09:43:28;;;;;;;;;;;19.90;58.10;;;;;;5019348;28;1698;-69
2023/12/07 09:45:53;;;;;;;;;;;19.90;58.10;;;;;;5035498;28;1578;-69
2023/12/07 09:48:19;;;;;;;;;;;19.90;58.10;;;;;;5034972;28;1898;-69
2023/12/07 09:50:45;;;;;;;;;;;19.90;58.10;;;;;;5035162;28;1469;-69
2023/12/07 09:53:10;;;;;;;;;;;19.90;58.10;;;;;;5037693;28;1328;-69
2023/12/07 09:55:36;;;;;;;;;;;19.90;58.10;;;;;;5037337;28;1464;-70
2023/12/07 09:58:03;;;;;;;;;;;19.90;58.10;;;;;;5035225;28;1450;-69
2023/12/07 10:00:28;;;;;;;;;;;19.90;58.20;;;;;;5070168;28;1413;-71
2023/12/07 10:02:54;;;;;;;;;;;19.90;58.20;;;;;;5036624;28;1377;-70
2023/12/07 10:05:19;;;;;;;;;;;19.80;58.20;;;;;;5038526;28;1357;-70
2023/12/07 10:07:47;;;;;;;;;;;19.90;58.20;;;;;;5032713;28;1883;-69
2023/12/07 10:10:13;;;;;;;;;;;19.80;58.20;;;;;;5032070;28;2205;-69
2023/12/07 10:12:51;;;;;;;;;;;19.80;58.20;;;;;;5040601;28;1304;-68
2023/12/07 10:15:17;;;;;;;;;;;19.90;58.20;;;;;;5038441;28;1347;-69
2023/12/07 10:17:44;;;;;;;;;;;19.80;58.20;;;;;;5041060;28;1434;-69
2023/12/07 10:20:12;;;;;;;;;;;19.80;58.20;;;;;;5039683;28;1272;-69
2023/12/07 10:22:38;;;;;;;;;;;19.80;58.20;;;;;;5041647;28;1350;-69
2023/12/07 10:25:04;;;;;;;;;;;19.80;58.20;;;;;;5038888;28;950;-69
2023/12/07 10:27:29;;;;;;;;;;;19.80;58.20;;;;;;5047722;28;1959;-69
2023/12/07 10:29:55;;;;;;;;;;;19.80;58.20;;;;;;5037012;28;1724;-69
2023/12/07 10:32:23;;;;;;;;;;;19.80;58.30;;;;;;5040848;28;1245;-68
2023/12/07 10:34:49;;;;;;;;;;;19.80;58.30;;;;;;5039527;28;1362;-69
2023/12/07 10:37:15;;;;;;;;;;;19.80;58.20;;;;;;5039574;28;1324;-68
2023/12/07 10:39:40;;;;;;;;;;;19.80;58.30;;;;;;5024921;28;1475;-69
2023/12/07 10:42:07;;;;;;;;;;;19.80;58.30;;;;;;5038932;28;1260;-70
2023/12/07 10:44:32;;;;;;;;;;;19.80;58.30;;;;;;5035968;28;1921;-70
2023/12/07 10:46:58;;;;;;;;;;;19.70;58.30;;;;;;5035645;28;1977;-69
2023/12/07 10:49:23;;;;;;;;;;;19.80;58.30;;;;;;5022943;28;1246;-68
2023/12/07 10:51:49;;;;;;;;;;;19.70;58.30;;;;;;5036672;28;1412;-69
2023/12/07 10:54:15;;;;;;;;;;;19.70;58.30;;;;;;5042001;28;1351;-69
2023/12/07 10:56:44;;;;;;;;;;;19.70;58.40;;;;;;5037339;28;1549;-69
2023/12/07 10:59:11;;;;;;;;;;;19.70;58.40;;;;;;5038646;28;1449;-69
2023/12/07 11:01:38;;;;;;;;;;;19.70;58.40;;;;;;5035242;28;1624;-69
2023/12/07 11:04:03;;;;;;;;;;;19.70;58.40;;;;;;5039771;28;1292;-69
2023/12/07 11:06:30;;;;;;;;;;;19.70;58.50;;;;;;5038528;28;1369;-69
2023/12/07 11:08:57;;;;;;;;;;;19.70;58.50;;;;;;5039421;28;1974;-68
2023/12/07 11:11:31;;;;;;;;;;;19.70;58.50;;;;;;5038681;28;1598;-68
2023/12/07 11:14:02;;;;;;;;;;;19.70;58.50;;;;;;5038898;28;1571;-69
2023/12/07 11:16:28;;;;;;;;;;;19.70;58.50;;;;;;5039932;28;1432;-68
2023/12/07 11:18:54;;;;;;;;;;;19.60;58.50;;;;;;5037735;28;1464;-68
2023/12/07 11:21:19;;;;;;;;;;;19.60;58.50;;;;;;5035018;28;2107;-68
2023/12/07 11:23:44;;;;;;;;;;;19.60;58.50;;;;;;5043273;28;2096;-68
2023/12/07 11:26:10;;;;;;;;;;;19.60;58.50;;;;;;5039187;28;1670;-68
2023/12/07 11:28:36;;;;;;;;;;;19.60;58.60;;;;;;5036708;28;1898;-67
2023/12/07 11:31:02;;;;;;;;;;;19.60;58.60;;;;;;5040606;28;1388;-68
2023/12/07 11:33:28;;;;;;;;;;;19.60;58.60;;;;;;5036800;28;959;-68
2023/12/07 11:36:03;;;;;;;;;;;19.60;58.60;;;;;;5037917;28;1443;-68
2023/12/07 11:38:29;;;;;;;;;;;19.60;58.60;;;;;;5024453;28;1620;-68
2023/12/07 11:40:57;;;;;;;;;;;19.60;58.70;;;;;;5038548;28;1373;-68
2023/12/07 11:43:32;;;;;;;;;;;19.60;58.70;;;;;;5039558;28;1287;-68
2023/12/07 11:45:58;;;;;;;;;;;19.50;58.70;;;;;;5036610;28;1223;-69
2023/12/07 11:48:23;;;;;;;;;;;19.50;58.70;;;;;;5035347;28;1961;-68
2023/12/07 11:50:58;;;;;;;;;;;19.50;58.70;;;;;;5035907;28;1419;-68
2023/12/07 11:53:24;;;;;;;;;;;19.50;58.70;;;;;;5036593;28;1282;-69
2023/12/07 11:55:50;;;;;;;;;;;19.50;58.70;;;;;;5035709;28;1337;-69
2023/12/07 11:58:15;;;;;;;;;;;19.50;58.70;;;;;;5037322;28;1296;-68
2023/12/07 12:00:41;;;;;;;;;;;19.60;58.70;;;;;;5038272;28;1336;-67
2023/12/07 12:03:06;;;;;;;;;;;19.60;58.60;;;;;;5068935;28;1217;-68
2023/12/07 12:05:32;;;;;;;;;;;19.60;58.60;;;;;;5036937;28;1495;-68
2023/12/07 12:07:57;;;;;;;;;;;19.60;58.60;;;;;;5039080;28;1992;-68
2023/12/07 12:10:43;;;;;;;;;;;19.60;58.60;;;;;;5036496;28;1408;-68
2023/12/07 12:13:08;;;;;;;;;;;19.60;58.50;;;;;;5034708;28;1719;-68
2023/12/07 12:15:34;;;;;;;;;;;19.60;58.50;;;;;;5040332;28;1855;-69
2023/12/07 12:18:00;;;;;;;;;;;19.60;58.50;;;;;;5033197;28;1498;-69
2023/12/07 12:20:25;;;;;;;;;;;19.60;58.50;;;;;;5033404;28;1407;-69
2023/12/07 12:22:53;;;;;;;;;;;19.60;58.40;;;;;;5035794;28;1257;-69
2023/12/07 12:25:23;;;;;;;;;;;19.60;58.40;;;;;;5038008;28;1503;-69
2023/12/07 12:27:49;;;;;;;;;;;19.60;58.50;;;;;;5037302;28;1907;-69
2023/12/07 12:30:14;;;;;;;;;;;19.60;58.50;;;;;;5046131;28;1258;-70
2023/12/07 12:32:46;;;;;;;;;;;19.60;58.50;;;;;;5034071;28;1471;-70
2023/12/07 12:35:14;;;;;;;;;;;19.60;58.40;;;;;;5036242;28;1402;-70
2023/12/07 12:37:46;;;;;;;;;;;19.60;58.50;;;;;;5038646;28;1407;-70
2023/12/07 12:40:13;;;;;;;;;;;19.60;58.50;;;;;;5037082;28;1439;-72
2023/12/07 12:42:38;;;;;;;;;;;19.60;58.50;;;;;;5016672;28;4361;-70
2023/12/07 12:45:08;;;;;;;;;;;19.60;58.50;;;;;;5036497;28;1387;-71
2023/12/07 12:47:33;;;;;;;;;;;19.60;58.50;;;;;;5036089;28;1977;-70
2023/12/07 12:50:00;;;;;;;;;;;19.60;58.50;;;;;;5034328;28;1260;-71
2023/12/07 12:52:26;;;;;;;;;;;19.60;58.50;;;;;;5029534;28;4370;-70
2023/12/07 12:54:51;;;;;;;;;;;19.60;58.50;;;;;;5052383;28;1900;-70
2023/12/07 12:57:18;;;;;;;;;;;19.60;58.50;;;;;;5035200;28;2035;-70
2023/12/07 12:59:45;;;;;;;;;;;19.60;58.50;;;;;;5029007;28;1407;-69
2023/12/07 13:02:10;;;;;;;;;;;19.60;58.50;;;;;;5032170;28;1249;-69
2023/12/07 13:04:36;;;;;;;;;;;19.60;58.50;;;;;;5035005;28;1456;-69
2023/12/07 13:07:01;;;;;;;;;;;19.60;58.50;;;;;;5033969;28;2100;-70
2023/12/07 13:09:28;;;;;;;;;;;19.60;58.60;;;;;;5036084;28;1409;-69
2023/12/07 13:11:54;;;;;;;;;;;19.60;58.50;;;;;;5037972;28;1221;-69
2023/12/07 13:14:19;;;;;;;;;;;19.60;58.50;;;;;;5037409;28;1772;-69
2023/12/07 13:16:45;;;;;;;;;;;19.50;58.50;;;;;;5035541;28;2152;-69
2023/12/07 13:19:10;;;;;;;;;;;19.50;58.50;;;;;;5033877;28;1932;-68
2023/12/07 13:21:36;;;;;;;;;;;19.50;58.50;;;;;;5034774;28;1841;-69
2023/12/07 13:24:04;;;;;;;;;;;19.50;58.50;;;;;;5036308;28;2329;-69
2023/12/07 13:26:30;;;;;;;;;;;19.60;58.60;;;;;;5035427;28;1973;-69
2023/12/07 13:28:55;;;;;;;;;;;19.50;58.60;;;;;;5036551;28;2164;-70
2023/12/07 13:31:21;;;;;;;;;;;19.50;58.60;;;;;;5033486;28;2425;-69
2023/12/07 13:33:47;;;;;;;;;;;19.50;59.20;;;;;;5020730;28;1860;-70
2023/12/07 13:36:12;;;;;;;;;;;19.50;58.60;;;;;;5036031;28;1456;-71
2023/12/07 13:38:39;;;;;;;;;;;19.50;58.60;;;;;;5065866;28;1523;-69
2023/12/07 13:41:05;;;;;;;;;;;19.50;58.60;;;;;;5037370;28;2265;-69
2023/12/07 13:43:30;;;;;;;;;;;19.50;58.60;;;;;;5023405;28;1613;-70
2023/12/07 13:45:56;;;;;;;;;;;19.50;58.60;;;;;;5036131;28;1309;-70
2023/12/07 13:48:21;;;;;;;;;;;19.50;58.60;;;;;;5036510;28;1957;-69
2023/12/07 13:50:47;;;;;;;;;;;19.50;58.50;;;;;;5033164;28;1395;-69
2023/12/07 13:53:12;;;;;;;;;;;19.60;58.50;;;;;;5035566;28;1990;-69
2023/12/07 13:55:39;;;;;;;;;;;19.60;58.50;;;;;;5040256;28;1286;-69
2023/12/07 13:58:06;;;;;;;;;;;19.60;58.40;;;;;;5038650;28;1811;-69
2023/12/07 14:00:32;;;;;;;;;;;19.60;58.40;;;;;;5040894;28;2046;-70
2023/12/07 14:02:57;;;;;;;;;;;19.60;58.40;;;;;;5040644;28;1463;-69
2023/12/07 14:05:24;;;;;;;;;;;19.60;58.30;;;;;;5039633;28;1450;-69
2023/12/07 14:07:50;;;;;;;;;;;19.60;58.30;;;;;;5042160;28;1914;-69
2023/12/07 14:10:15;;;;;;;;;;;19.60;58.30;;;;;;5038807;28;1511;-69
2023/12/07 14:12:41;;;;;;;;;;;19.60;58.30;;;;;;5040265;28;1373;-69
2023/12/07 14:15:07;;;;;;;;;;;19.60;58.30;;;;;;5040748;28;1396;-69
2023/12/07 14:17:37;;;;;;;;;;;19.60;58.30;;;;;;5039575;28;1367;-69
2023/12/07 14:20:07;;;;;;;;;;;19.60;58.30;;;;;;5026464;28;1239;-69
2023/12/07 14:22:32;;;;;;;;;;;19.60;58.30;;;;;;5041622;28;1559;-69